Time;durP1;ratioP1;P1;durP2;ratioP2;P2;SDS_P1;SDS_P2;PMS_P1;PMS_P2;Temp;Humidity;BMP_temperature;BMP_pressure;BME280_temperature;BME280_humidity;BME280_pressure;Samples;Min_cycle;Max_cycle;Signal;HPM_P1;HPM_P2
2021/07/03 00:00:06;;;;;;;11.20;8.45;;;;;;;11.66;100.00;95990.59;1022958;29;20752;-70
2021/07/03 00:00:36;;;;;;;10.85;7.75;;;;;;;11.70;100.00;95999.50;1015936;29;20802;-70
2021/07/03 00:01:07;;;;;;;11.90;8.27;;;;;;;11.71;100.00;95998.47;1014864;29;20321;-70
2021/07/03 00:01:37;;;;;;;11.68;7.82;;;;;;;11.70;100.00;95996.88;1018839;29;20023;-70
2021/07/03 00:02:08;;;;;;;11.80;8.45;;;;;;;11.67;100.00;95994.78;1014979;29;20047;-69
2021/07/03 00:02:38;;;;;;;14.32;8.60;;;;;;;11.70;100.00;96000.31;1010977;29;20073;-69
2021/07/03 00:03:08;;;;;;;11.57;8.48;;;;;;;11.71;100.00;96001.09;1015138;29;20035;-69
2021/07/03 00:03:39;;;;;;;14.35;8.45;;;;;;;11.69;100.00;96000.56;1018427;29;20031;-69
2021/07/03 00:04:09;;;;;;;12.80;8.90;;;;;;;11.61;100.00;95983.50;1014865;29;20028;-69
2021/07/03 00:04:43;;;;;;;13.75;8.23;;;;;;;11.70;100.00;95995.06;1015393;29;20124;-69
2021/07/03 00:05:13;;;;;;;11.73;8.65;;;;;;;11.71;100.00;95990.59;1011493;29;20048;-69
2021/07/03 00:05:44;;;;;;;11.13;8.45;;;;;;;11.72;100.00;95992.16;1010551;29;20281;-70
2021/07/03 00:06:14;;;;;;;12.10;7.93;;;;;;;11.72;100.00;96000.84;1015248;29;20703;-69
2021/07/03 00:06:45;;;;;;;13.70;8.65;;;;;;;11.72;100.00;95990.31;1015137;29;20089;-69
2021/07/03 00:07:15;;;;;;;10.85;7.82;;;;;;;11.73;100.00;95999.00;1015586;29;20039;-69
2021/07/03 00:07:46;;;;;;;10.38;7.97;;;;;;;11.73;100.00;95999.00;1014840;29;20039;-70
2021/07/03 00:08:16;;;;;;;11.73;8.63;;;;;;;11.67;100.00;95982.44;1014881;29;20084;-69
2021/07/03 00:08:47;;;;;;;10.32;7.82;;;;;;;11.68;100.00;95983.22;1019139;29;20031;-69
2021/07/03 00:09:17;;;;;;;11.73;8.02;;;;;;;11.74;100.00;95993.50;1014845;29;20024;-69
2021/07/03 00:09:48;;;;;;;10.68;7.55;;;;;;;11.73;100.00;95991.09;1015016;29;20044;-69
2021/07/03 00:10:22;;;;;;;13.77;8.18;;;;;;;11.71;100.00;95983.50;1011184;29;20471;-65
2021/07/03 00:10:52;;;;;;;10.50;7.85;;;;;;;11.66;100.00;95980.06;1008983;29;20273;-69
2021/07/03 00:11:22;;;;;;;10.02;7.72;;;;;;;11.72;100.00;95984.28;1011543;29;20027;-70
2021/07/03 00:11:53;;;;;;;10.70;7.88;;;;;;;11.74;100.00;95984.81;1011196;29;20017;-70
2021/07/03 00:12:23;;;;;;;10.73;7.85;;;;;;;11.74;100.00;95990.06;1005229;29;20021;-69
2021/07/03 00:12:57;;;;;;;12.00;6.82;;;;;;;11.72;100.00;95984.28;1015285;29;20028;-69
2021/07/03 00:13:27;;;;;;;11.13;7.95;;;;;;;11.71;100.00;95988.75;1015429;29;20025;-69
2021/07/03 00:13:57;;;;;;;12.27;8.48;;;;;;;11.71;100.00;95986.13;1017916;29;20264;-68
2021/07/03 00:14:31;;;;;;;10.60;7.78;;;;;;;11.69;100.00;96003.97;1014558;29;20112;-69
2021/07/03 00:15:02;;;;;;;10.00;7.63;;;;;;;11.69;100.00;95990.06;1015359;29;20123;-68
2021/07/03 00:15:33;;;;;;;11.90;8.23;;;;;;;11.68;100.00;95991.13;1022881;29;20317;-69
2021/07/03 00:16:03;;;;;;;12.63;8.50;;;;;;;11.66;100.00;95983.47;1016400;29;20264;-69
2021/07/03 00:16:34;;;;;;;11.80;7.88;;;;;;;11.67;100.00;95992.16;1011109;29;20107;-69
2021/07/03 00:17:07;;;;;;;12.38;8.25;;;;;;;11.64;100.00;95988.22;1014887;29;20159;-66
2021/07/03 00:17:38;;;;;;;12.75;8.48;;;;;;;11.57;100.00;95975.34;1012250;29;20766;-69
2021/07/03 00:18:11;;;;;;;13.68;8.40;;;;;;;11.64;100.00;95982.19;1012176;29;20017;-69
2021/07/03 00:18:41;;;;;;;12.10;8.18;;;;;;;11.62;100.00;95984.28;1017919;29;20331;-69
2021/07/03 00:19:12;;;;;;;10.45;7.90;;;;;;;11.60;100.00;95983.75;1016475;29;20035;-69
2021/07/03 00:19:42;;;;;;;10.70;8.00;;;;;;;11.61;100.00;95987.97;1015444;29;20032;-70
2021/07/03 00:20:13;;;;;;;11.77;7.72;;;;;;;11.53;100.00;95976.91;1014735;29;20035;-69
2021/07/03 00:20:43;;;;;;;10.35;7.95;;;;;;;11.57;100.00;95988.50;1014879;29;20032;-69
2021/07/03 00:21:14;;;;;;;12.18;8.10;;;;;;;11.57;100.00;95987.72;1018409;29;20464;-69
2021/07/03 00:21:44;;;;;;;15.30;8.25;;;;;;;11.54;100.00;95993.47;1019139;29;20040;-69
2021/07/03 00:22:15;;;;;;;13.77;7.55;;;;;;;11.53;100.00;95986.63;1022977;29;20027;-69
2021/07/03 00:22:49;;;;;;;18.35;8.48;;;;;;;11.47;100.00;95977.19;1022277;28;20027;-69
2021/07/03 00:23:19;;;;;;;13.15;8.05;;;;;;;11.49;100.00;95986.38;1022847;29;20275;-70
2021/07/03 00:23:49;;;;;;;11.63;7.82;;;;;;;11.47;100.00;95988.47;1018577;29;20271;-70
2021/07/03 00:24:20;;;;;;;9.88;7.63;;;;;;;11.49;100.00;95985.59;1014587;29;20035;-69
2021/07/03 00:24:50;;;;;;;13.52;8.27;;;;;;;11.44;100.00;95991.63;1014781;29;20036;-70
2021/07/03 00:25:21;;;;;;;11.05;7.80;;;;;;;11.43;100.00;95989.25;1015116;29;20036;-69
2021/07/03 00:25:52;;;;;;;10.60;8.52;;;;;;;11.41;100.00;95988.75;1015957;29;20095;-70
2021/07/03 00:26:22;;;;;;;13.85;7.80;;;;;;;11.39;100.00;95986.34;1018553;29;20023;-70
2021/07/03 00:26:53;;;;;;;13.10;8.00;;;;;;;11.36;100.00;95981.63;1018736;29;20055;-70
2021/07/03 00:27:26;;;;;;;10.98;7.30;;;;;;;11.38;100.00;95984.00;1014162;29;20471;-69
2021/07/03 00:27:56;;;;;;;9.15;7.32;;;;;;;11.39;100.00;95986.34;1008842;29;20506;-70
2021/07/03 00:28:27;;;;;;;10.98;7.45;;;;;;;11.38;100.00;95990.03;1014859;29;20264;-69
2021/07/03 00:28:57;;;;;;;10.38;8.13;;;;;;;11.40;100.00;95987.13;1014845;29;20055;-69
2021/07/03 00:29:27;;;;;;;9.73;7.47;;;;;;;11.39;100.00;95988.97;1013160;29;20066;-70
2021/07/03 00:29:58;;;;;;;11.38;7.78;;;;;;;11.39;100.00;95988.19;1015016;29;20569;-69
2021/07/03 00:30:29;;;;;;;11.27;8.48;;;;;;;11.36;100.00;95984.25;1015147;29;20147;-69
2021/07/03 00:30:59;;;;;;;12.73;8.20;;;;;;;11.35;100.00;95985.31;1010879;29;20143;-69
2021/07/03 00:31:30;;;;;;;10.93;7.68;;;;;;;11.33;100.00;95993.47;1014766;29;20605;-68
2021/07/03 00:32:01;;;;;;;11.82;8.30;;;;;;;11.33;100.00;95988.22;1019040;29;20031;-68
2021/07/03 00:32:31;;;;;;;12.50;7.80;;;;;;;11.32;100.00;95991.09;1018810;29;20071;-68
2021/07/03 00:33:02;;;;;;;10.20;8.02;;;;;;;11.31;100.00;95990.28;1022089;29;20325;-68
2021/07/03 00:33:32;;;;;;;12.02;8.77;;;;;;;11.31;100.00;95990.28;1022935;29;20031;-68
2021/07/03 00:34:03;;;;;;;11.77;8.05;;;;;;;11.26;100.00;95987.66;1018939;29;20100;-69
2021/07/03 00:34:33;;;;;;;15.05;8.93;;;;;;;11.22;100.00;95985.81;1014778;29;20036;-68
2021/07/03 00:35:05;;;;;;;10.77;7.93;;;;;;;11.21;100.00;95985.03;1014862;29;20035;-69
2021/07/03 00:35:35;;;;;;;11.00;8.40;;;;;;;11.24;100.00;95994.22;1018877;29;20107;-68
2021/07/03 00:36:06;;;;;;;11.77;8.90;;;;;;;11.23;100.00;95990.00;1013676;29;20264;-68
2021/07/03 00:36:36;;;;;;;12.32;8.68;;;;;;;11.22;100.00;95991.84;1007396;29;20539;-68
2021/07/03 00:37:07;;;;;;;12.02;7.88;;;;;;;11.21;100.00;95986.88;1010609;29;20047;-67
2021/07/03 00:37:37;;;;;;;10.68;7.85;;;;;;;11.21;100.00;95995.53;1010910;29;20028;-68
2021/07/03 00:38:08;;;;;;;11.63;7.40;;;;;;;11.18;100.00;95985.53;1014701;29;20713;-68
2021/07/03 00:38:38;;;;;;;13.30;8.15;;;;;;;11.17;100.00;95991.84;1014957;29;20383;-69
2021/07/03 00:39:08;;;;;;;11.30;7.93;;;;;;;11.10;100.00;95972.94;1010888;29;20089;-68
2021/07/03 00:39:39;;;;;;;11.60;8.95;;;;;;;11.16;100.00;95987.63;1010535;29;20481;-69
2021/07/03 00:40:10;;;;;;;10.52;7.55;;;;;;;11.13;100.00;95987.34;1011025;29;20036;-69
2021/07/03 00:40:40;;;;;;;11.52;7.93;;;;;;;11.14;100.00;95986.34;1011432;29;20028;-69
2021/07/03 00:41:11;;;;;;;9.65;7.47;;;;;;;11.13;100.00;95987.34;1012256;29;20265;-69
2021/07/03 00:41:42;;;;;;;10.85;8.20;;;;;;;11.08;100.00;95981.06;1017034;29;20070;-67
2021/07/03 00:42:12;;;;;;;11.77;8.27;;;;;;;11.11;100.00;95989.47;1019154;29;20106;-69
2021/07/03 00:42:43;;;;;;;10.20;7.20;;;;;;;11.10;100.00;95988.69;1022937;28;20405;-69
2021/07/03 00:43:13;;;;;;;10.63;7.32;;;;;;;11.10;100.00;95993.94;1024628;28;20030;-68
2021/07/03 00:43:44;;;;;;;10.98;8.43;;;;;;;11.03;100.00;95982.88;1026547;28;20030;-68
2021/07/03 00:44:41;;;;;;;11.52;7.85;;;;;;;11.06;100.00;95988.38;1026906;28;20043;-69
2021/07/03 00:45:12;;;;;;;12.20;7.47;;;;;;;11.00;100.00;95981.56;1019148;29;20038;-69
2021/07/03 00:45:42;;;;;;;10.85;8.13;;;;;;;11.05;100.00;95992.06;1018783;29;20700;-69
2021/07/03 00:46:13;;;;;;;11.27;7.65;;;;;;;11.06;100.00;95987.59;1016095;29;20035;-69
2021/07/03 00:46:43;;;;;;;11.55;7.90;;;;;;;11.07;100.00;95990.00;1014888;29;20035;-69
2021/07/03 00:47:14;;;;;;;12.25;7.47;;;;;;;10.96;100.00;95969.19;1018742;29;20151;-66
2021/07/03 00:47:44;;;;;;;11.05;7.72;;;;;;;11.06;100.00;95985.75;1010816;29;20543;-68
2021/07/03 00:48:15;;;;;;;12.65;8.73;;;;;;;11.04;100.00;95980.00;1011240;29;20020;-69
2021/07/03 00:48:45;;;;;;;14.73;8.85;;;;;;;11.13;100.00;95985.50;1015047;29;20035;-69
2021/07/03 00:49:16;;;;;;;13.68;8.75;;;;;;;11.13;100.00;95987.34;1015194;29;20026;-69
2021/07/03 00:49:47;;;;;;;13.32;8.95;;;;;;;11.14;100.00;95983.72;1016725;29;20042;-68
2021/07/03 00:50:17;;;;;;;13.88;9.00;;;;;;;11.20;100.00;95980.81;1015023;29;20259;-69
2021/07/03 00:50:51;;;;;;;12.38;8.85;;;;;;;11.32;100.00;95985.81;1015149;29;20114;-69
2021/07/03 00:51:22;;;;;;;12.60;9.45;;;;;;;11.31;100.00;95987.66;1015484;29;20024;-69
2021/07/03 00:51:52;;;;;;;13.43;8.95;;;;;;;11.38;100.00;95989.25;1014802;29;20343;-68
2021/07/03 00:52:23;;;;;;;15.75;9.60;;;;;;;11.37;100.00;95975.34;1007537;29;20495;-69
2021/07/03 00:52:53;;;;;;;15.45;9.55;;;;;;;11.47;100.00;95992.97;1007485;29;20017;-68
2021/07/03 00:53:24;;;;;;;12.52;8.95;;;;;;;11.47;100.00;95982.44;1007549;29;20025;-69
2021/07/03 00:53:54;;;;;;;11.07;8.55;;;;;;;11.51;100.00;95986.13;1014867;29;20585;-69
2021/07/03 00:54:25;;;;;;;12.90;8.93;;;;;;;11.45;100.00;95984.53;1019150;29;20405;-69
2021/07/03 00:54:59;;;;;;;11.55;8.98;;;;;;;11.50;100.00;95981.88;1019120;29;20027;-69
2021/07/03 00:55:29;;;;;;;13.65;9.40;;;;;;;11.55;100.00;95984.53;1018895;29;20259;-69
2021/07/03 00:55:59;;;;;;;12.35;8.80;;;;;;;11.55;100.00;95990.56;1015076;29;20017;-68
2021/07/03 00:56:30;;;;;;;12.73;9.23;;;;;;;11.56;100.00;95991.38;1015242;29;20035;-69
2021/07/03 00:57:01;;;;;;;13.82;8.45;;;;;;;11.65;100.00;95989.00;1013282;29;20024;-65
2021/07/03 00:57:32;;;;;;;12.48;8.63;;;;;;;11.68;100.00;95983.22;1014833;29;20035;-69
2021/07/03 00:58:03;;;;;;;13.55;9.18;;;;;;;11.66;100.00;95974.81;1017637;29;20359;-68
2021/07/03 00:58:33;;;;;;;13.20;9.02;;;;;;;11.70;100.00;95976.66;1020657;29;20066;-68
2021/07/03 00:59:03;;;;;;;12.48;8.90;;;;;;;11.80;100.00;95986.38;1020192;29;20034;-68
2021/07/03 00:59:41;;;;;;;10.98;8.57;;;;;;;11.79;100.00;95990.06;1019193;29;20020;-69
2021/07/03 01:00:12;;;;;;;13.80;8.90;;;;;;;11.83;100.00;95983.22;1021499;29;20524;-68
2021/07/03 01:00:43;;;;;;;12.50;9.70;;;;;;;11.82;100.00;95984.28;1010831;29;20383;-68
2021/07/03 01:01:13;;;;;;;12.70;9.02;;;;;;;11.85;100.00;95983.00;1016070;29;20261;-68
2021/07/03 01:01:43;;;;;;;12.00;9.05;;;;;;;11.85;100.00;95977.72;1014991;29;20035;-68
2021/07/03 01:02:15;;;;;;;10.73;8.55;;;;;;;11.89;100.00;95978.78;1009863;29;20025;-68
2021/07/03 01:02:46;;;;;;;10.95;8.35;;;;;;;11.91;100.00;95982.72;1015090;29;20710;-69
2021/07/03 01:03:16;;;;;;;12.25;9.10;;;;;;;11.91;100.00;95974.84;1015887;29;20402;-69
2021/07/03 01:03:47;;;;;;;12.63;8.77;;;;;;;11.90;100.00;95981.13;1017954;29;20024;-68
2021/07/03 01:04:18;;;;;;;12.63;8.95;;;;;;;11.91;100.00;95985.34;1014879;29;20020;-68
2021/07/03 01:04:51;;;;;;;13.40;8.52;;;;;;;11.90;100.00;95978.50;1016210;29;20012;-68
2021/07/03 01:05:22;;;;;;;14.88;9.75;;;;;;;11.85;100.00;95968.00;1019084;29;20657;-69
2021/07/03 01:05:53;;;;;;;17.58;9.18;;;;;;;11.89;100.00;95976.94;1016819;29;20032;-69
2021/07/03 01:06:24;;;;;;;13.63;9.10;;;;;;;11.90;100.00;95981.13;1015644;29;20401;-69
2021/07/03 01:06:57;;;;;;;16.38;9.40;;;;;;;11.89;100.00;95979.56;1017782;29;20035;-69
2021/07/03 01:07:28;;;;;;;14.45;8.90;;;;;;;11.82;100.00;95968.50;1016085;29;20271;-69
2021/07/03 01:07:58;;;;;;;12.05;8.85;;;;;;;11.85;100.00;95970.63;1015671;29;20260;-69
2021/07/03 01:08:29;;;;;;;12.70;8.85;;;;;;;11.89;100.00;95976.94;1018358;29;20019;-69
2021/07/03 01:08:59;;;;;;;11.02;8.18;;;;;;;11.88;100.00;95972.72;1010917;29;20021;-68
2021/07/03 01:09:30;;;;;;;11.75;8.70;;;;;;;11.87;100.00;95979.06;1015079;29;20016;-66
2021/07/03 01:10:00;;;;;;;12.48;8.02;;;;;;;11.88;100.00;95978.00;1019002;29;20043;-69
2021/07/03 01:10:31;;;;;;;10.98;8.55;;;;;;;11.86;100.00;95969.56;1014583;29;20064;-69
2021/07/03 01:11:01;;;;;;;11.85;8.35;;;;;;;11.83;100.00;95964.81;1010088;29;20019;-69
2021/07/03 01:11:35;;;;;;;12.95;9.13;;;;;;;11.85;100.00;95980.38;1015391;29;20020;-69
2021/07/03 01:12:05;;;;;;;11.35;9.05;;;;;;;11.76;100.00;95969.56;1015151;29;20315;-69
2021/07/03 01:12:39;;;;;;;13.55;9.27;;;;;;;11.80;100.00;95981.09;1019178;29;20699;-69
2021/07/03 01:13:09;;;;;;;12.75;8.95;;;;;;;11.77;100.00;95976.41;1023385;29;20449;-69
2021/07/03 01:13:40;;;;;;;15.68;10.90;;;;;;;11.72;100.00;95974.53;1019078;29;20362;-69
2021/07/03 01:14:10;;;;;;;14.30;9.90;;;;;;;11.69;100.00;95974.28;1012124;29;20020;-70
2021/07/03 01:14:44;;;;;;;13.27;9.68;;;;;;;11.64;100.00;95969.03;1011123;29;20044;-69
2021/07/03 01:15:15;;;;;;;13.77;9.52;;;;;;;11.62;100.00;95971.91;1015631;29;20024;-69
2021/07/03 01:15:45;;;;;;;13.32;9.40;;;;;;;11.61;100.00;95972.19;1015206;29;20673;-68
2021/07/03 01:16:16;;;;;;;15.48;9.82;;;;;;;11.56;100.00;95965.88;1011790;29;20031;-69
2021/07/03 01:16:47;;;;;;;15.88;9.57;;;;;;;11.49;100.00;95965.34;1011157;29;20025;-69
2021/07/03 01:17:17;;;;;;;12.65;8.57;;;;;;;11.54;100.00;95977.72;1014819;29;20123;-65
2021/07/03 01:17:48;;;;;;;13.13;8.32;;;;;;;11.53;100.00;95973.50;1022673;28;20023;-69
2021/07/03 01:18:18;;;;;;;13.48;8.68;;;;;;;11.51;100.00;95978.22;1015258;29;20032;-69
2021/07/03 01:18:49;;;;;;;17.08;9.07;;;;;;;11.48;100.00;95974.28;1011238;29;20024;-68
2021/07/03 01:19:20;;;;;;;12.23;8.93;;;;;;;11.41;100.00;95963.25;1018348;29;20024;-68
2021/07/03 01:19:51;;;;;;;12.40;9.15;;;;;;;11.47;100.00;95977.97;1019330;29;20039;-69
2021/07/03 01:20:21;;;;;;;13.23;8.05;;;;;;;11.43;100.00;95971.63;1019058;29;20283;-69
2021/07/03 01:20:53;;;;;;;13.90;8.57;;;;;;;11.45;100.00;95977.44;1017151;29;20107;-69
2021/07/03 01:21:27;;;;;;;11.70;7.75;;;;;;;11.43;100.00;95982.16;1015926;29;20013;-68
2021/07/03 01:21:58;;;;;;;9.88;8.10;;;;;;;11.41;100.00;95979.00;1018954;29;20290;-69
2021/07/03 01:22:28;;;;;;;10.15;8.50;;;;;;;11.40;100.00;95974.81;1017767;29;20260;-69
2021/07/03 01:23:02;;;;;;;10.50;8.13;;;;;;;11.38;100.00;95976.91;1010808;29;20073;-69
2021/07/03 01:23:32;;;;;;;12.10;8.02;;;;;;;11.36;100.00;95975.59;1008795;29;20028;-69
2021/07/03 01:24:03;;;;;;;12.65;8.88;;;;;;;11.17;100.00;95952.47;1015580;29;20280;-69
2021/07/03 01:24:33;;;;;;;21.20;9.45;;;;;;;11.29;100.00;95970.59;1015296;29;20031;-68
2021/07/03 01:25:04;;;;;;;12.70;8.38;;;;;;;11.28;100.00;95974.28;1011537;29;20789;-69
2021/07/03 01:25:35;;;;;;;12.90;8.63;;;;;;;11.29;100.00;95979.25;1011655;29;20427;-69
2021/07/03 01:26:05;;;;;;;10.20;7.63;;;;;;;11.27;100.00;95980.56;1007367;29;20033;-68
2021/07/03 01:26:43;;;;;;;11.88;8.85;;;;;;;11.21;100.00;95979.00;1015671;29;20051;-68
2021/07/03 01:27:16;;;;;;;10.65;7.80;;;;;;;11.20;100.00;95983.47;1014790;29;20035;-64
2021/07/03 01:28:04;;;;;;;11.38;8.07;;;;;;;11.11;100.00;95974.50;1009519;29;20369;-68
2021/07/03 01:28:38;;;;;;;9.77;7.88;;;;;;;11.17;100.00;95978.72;1015047;29;20367;-68
2021/07/03 01:29:08;;;;;;;10.73;8.15;;;;;;;11.16;100.00;95984.22;1015848;29;20259;-68
2021/07/03 01:29:39;;;;;;;10.32;8.27;;;;;;;11.07;100.00;95976.84;1019649;29;20366;-69
2021/07/03 01:30:10;;;;;;;15.15;8.68;;;;;;;11.01;100.00;95974.47;1015077;29;20036;-68
2021/07/03 01:30:41;;;;;;;9.63;8.00;;;;;;;11.09;100.00;95982.63;1016051;29;20058;-69
2021/07/03 01:31:11;;;;;;;14.70;8.48;;;;;;;11.06;100.00;95985.75;1019484;29;20606;-70
2021/07/03 01:31:43;;;;;;;12.35;8.23;;;;;;;11.05;100.00;95975.53;1016173;29;20100;-69
2021/07/03 01:32:16;;;;;;;11.75;8.65;;;;;;;10.98;100.00;95970.53;1016639;29;20167;-68
2021/07/03 01:32:47;;;;;;;11.18;7.90;;;;;;;11.04;100.00;95979.22;1015861;29;20307;-69
2021/07/03 01:33:17;;;;;;;10.57;7.57;;;;;;;11.05;100.00;95978.16;1015818;29;20264;-68
2021/07/03 01:33:48;;;;;;;13.00;7.85;;;;;;;11.00;100.00;95981.56;1016735;29;20055;-69
2021/07/03 01:34:19;;;;;;;13.10;8.77;;;;;;;10.99;100.00;95985.22;1023170;29;20079;-68
2021/07/03 01:34:50;;;;;;;16.98;9.18;;;;;;;10.97;100.00;95984.72;1019689;29;20115;-65
2021/07/03 01:35:27;;;;;;;15.10;9.30;;;;;;;10.87;100.00;95974.19;1011821;29;20257;-69
2021/07/03 01:35:57;;;;;;;14.60;8.77;;;;;;;10.95;100.00;95980.75;1011916;29;20128;-68
2021/07/03 01:36:28;;;;;;;12.18;8.57;;;;;;;10.91;100.00;95983.13;1015656;29;20283;-68
2021/07/03 01:36:58;;;;;;;10.70;8.32;;;;;;;10.89;100.00;95990.44;1024854;28;20027;-69
2021/07/03 01:37:29;;;;;;;10.82;8.63;;;;;;;10.90;100.00;95984.16;1026580;28;20027;-68
2021/07/03 01:37:59;;;;;;;12.95;8.45;;;;;;;10.86;100.00;95983.09;1018135;29;20509;-68
2021/07/03 01:38:30;;;;;;;11.70;8.38;;;;;;;10.89;100.00;95985.19;1011907;29;20043;-68
2021/07/03 01:39:01;;;;;;;11.95;8.65;;;;;;;10.87;100.00;95984.69;1008314;29;20111;-69
2021/07/03 01:39:31;;;;;;;12.00;8.35;;;;;;;10.87;100.00;95989.16;1011411;29;20032;-66
2021/07/03 01:40:05;;;;;;;13.88;8.43;;;;;;;10.87;100.00;95984.69;1019804;29;20016;-69
2021/07/03 01:40:36;;;;;;;11.73;8.70;;;;;;;10.85;100.00;95984.13;1015946;29;20031;-68
2021/07/03 01:41:06;;;;;;;12.73;8.32;;;;;;;10.78;100.00;95978.34;1016304;29;20965;-68
2021/07/03 01:41:36;;;;;;;10.77;8.38;;;;;;;10.85;100.00;95989.38;1011615;29;20506;-69
2021/07/03 01:42:07;;;;;;;13.32;8.57;;;;;;;10.84;100.00;95990.44;1012020;29;20028;-69
2021/07/03 01:42:38;;;;;;;13.32;8.13;;;;;;;10.76;100.00;95972.56;1019790;29;20106;-69
2021/07/03 01:43:08;;;;;;;10.63;7.93;;;;;;;10.82;100.00;95988.06;1015588;29;20021;-68
2021/07/03 01:43:39;;;;;;;10.63;8.20;;;;;;;10.80;100.00;95989.38;1015807;29;20041;-68
2021/07/03 01:44:11;;;;;;;14.45;8.95;;;;;;;10.76;100.00;95977.81;1022683;29;20038;-68
2021/07/03 01:44:44;;;;;;;12.35;8.25;;;;;;;10.79;100.00;95982.53;1019567;28;20027;-68
2021/07/03 01:45:14;;;;;;;12.43;8.85;;;;;;;10.80;100.00;95981.50;1021650;29;20271;-69
2021/07/03 01:45:45;;;;;;;12.20;7.60;;;;;;;10.81;100.00;95980.47;1015312;29;20284;-68
2021/07/03 01:46:15;;;;;;;10.13;7.55;;;;;;;10.80;100.00;95981.50;1014857;29;20036;-68
2021/07/03 01:46:46;;;;;;;12.60;8.80;;;;;;;10.79;100.00;95980.69;1014706;29;20039;-68
2021/07/03 01:47:16;;;;;;;13.52;8.35;;;;;;;10.78;100.00;95988.84;1014253;29;20441;-68
2021/07/03 01:47:47;;;;;;;11.30;8.63;;;;;;;10.77;100.00;95982.81;1018854;29;20038;-68
2021/07/03 01:48:25;;;;;;;14.30;8.70;;;;;;;10.75;100.00;95974.38;1017638;29;20075;-68
2021/07/03 01:49:05;;;;;;;11.13;8.35;;;;;;;10.69;100.00;95978.03;1015487;29;20028;-69
2021/07/03 01:49:37;;;;;;;10.45;8.00;;;;;;;10.74;100.00;95982.53;1014987;29;20351;-69
2021/07/03 01:50:08;;;;;;;10.82;8.50;;;;;;;10.76;100.00;95977.81;1014169;29;20044;-68
2021/07/03 01:50:39;;;;;;;11.60;8.05;;;;;;;10.74;100.00;95982.53;1011402;29;20284;-68
2021/07/03 01:51:09;;;;;;;10.65;8.00;;;;;;;10.73;100.00;95978.31;1015355;29;20383;-68
2021/07/03 01:51:39;;;;;;;10.88;7.95;;;;;;;10.75;100.00;95981.47;1015359;29;20032;-65
2021/07/03 01:52:10;;;;;;;11.18;7.82;;;;;;;10.74;100.00;95980.69;1018923;29;20028;-69
2021/07/03 01:52:40;;;;;;;11.05;8.52;;;;;;;10.74;100.00;95979.91;1023492;29;20035;-68
2021/07/03 01:53:11;;;;;;;12.32;7.78;;;;;;;10.73;100.00;95983.56;1015328;29;20187;-69
2021/07/03 01:53:41;;;;;;;13.05;7.95;;;;;;;10.72;100.00;95984.63;1019220;29;20024;-68
2021/07/03 01:54:12;;;;;;;12.85;8.07;;;;;;;10.66;100.00;95973.31;1019444;29;20034;-68
2021/07/03 01:54:42;;;;;;;13.85;9.18;;;;;;;10.68;100.00;95980.94;1023329;29;20142;-68
2021/07/03 01:55:12;;;;;;;13.55;8.52;;;;;;;10.67;100.00;95980.16;1026041;28;20026;-69
2021/07/03 01:55:43;;;;;;;10.95;7.75;;;;;;;10.70;100.00;95977.00;1022705;29;20614;-69
2021/07/03 01:56:13;;;;;;;11.45;7.85;;;;;;;10.68;100.00;95984.34;1011427;29;20036;-69
2021/07/03 01:56:44;;;;;;;10.50;7.95;;;;;;;10.68;100.00;95981.72;1011783;29;20498;-67
2021/07/03 01:57:15;;;;;;;11.80;8.63;;;;;;;10.65;100.00;95971.72;1009972;29;20481;-67
2021/07/03 01:57:45;;;;;;;12.95;8.88;;;;;;;10.68;100.00;95976.47;1013881;29;20381;-65
2021/07/03 01:58:23;;;;;;;11.15;8.23;;;;;;;10.65;100.00;95971.72;1015496;29;20040;-68
2021/07/03 01:58:54;;;;;;;11.23;8.55;;;;;;;10.54;100.00;95955.16;1015358;29;20616;-69
2021/07/03 01:59:25;;;;;;;11.30;9.15;;;;;;;10.68;100.00;95976.47;1011465;29;20277;-68
2021/07/03 01:59:56;;;;;;;12.63;8.75;;;;;;;10.68;100.00;95973.06;1016673;29;20039;-68
2021/07/03 02:00:26;;;;;;;13.65;9.05;;;;;;;10.64;100.00;95972.00;1018617;29;20367;-67
2021/07/03 02:00:59;;;;;;;14.23;9.13;;;;;;;10.68;100.00;95980.94;1015619;29;20039;-69
2021/07/03 02:01:30;;;;;;;13.73;8.65;;;;;;;10.65;100.00;95976.19;1019438;29;20035;-69
2021/07/03 02:02:01;;;;;;;12.38;8.77;;;;;;;10.63;100.00;95973.84;1023239;29;20637;-68
2021/07/03 02:02:32;;;;;;;13.68;9.15;;;;;;;10.68;100.00;95980.94;1020049;28;20020;-68
2021/07/03 02:03:02;;;;;;;14.18;8.98;;;;;;;10.66;100.00;95983.00;1019265;29;20260;-68
2021/07/03 02:03:33;;;;;;;11.98;9.10;;;;;;;10.64;100.00;95983.28;1015572;29;20032;-69
2021/07/03 02:04:04;;;;;;;12.70;8.98;;;;;;;10.58;100.00;95973.81;1018542;29;20098;-68
2021/07/03 02:04:34;;;;;;;13.40;9.30;;;;;;;10.61;100.00;95976.69;1017689;29;20228;-66
2021/07/03 02:05:05;;;;;;;13.52;9.02;;;;;;;10.60;100.00;95980.38;1019403;29;20020;-68
2021/07/03 02:05:35;;;;;;;13.18;8.70;;;;;;;10.58;100.00;95981.69;1019085;29;20032;-68
2021/07/03 02:06:06;;;;;;;12.43;8.98;;;;;;;10.52;100.00;95972.19;1019437;29;20433;-69
2021/07/03 02:06:36;;;;;;;11.35;8.73;;;;;;;10.55;100.00;95977.72;1019495;29;20461;-68
2021/07/03 02:07:07;;;;;;;15.65;10.00;;;;;;;10.54;100.00;95981.41;1022125;28;20031;-66
2021/07/03 02:07:37;;;;;;;12.35;8.45;;;;;;;10.52;100.00;95978.22;1022007;29;20032;-68
2021/07/03 02:08:08;;;;;;;12.88;8.90;;;;;;;10.50;100.00;95979.56;1021817;29;20421;-68
2021/07/03 02:08:38;;;;;;;14.73;9.15;;;;;;;10.50;100.00;95975.09;1018789;29;20023;-68
2021/07/03 02:09:09;;;;;;;12.70;9.15;;;;;;;10.48;100.00;95981.63;1021020;29;20472;-68
2021/07/03 02:09:39;;;;;;;15.30;9.40;;;;;;;10.47;100.00;95983.47;1023444;29;20019;-68
2021/07/03 02:10:10;;;;;;;14.32;9.77;;;;;;;10.46;100.00;95979.28;1025371;28;20034;-68
2021/07/03 02:10:40;;;;;;;14.00;9.88;;;;;;;10.46;100.00;95979.28;1023450;29;20034;-68
2021/07/03 02:11:14;;;;;;;14.50;9.95;;;;;;;10.44;100.00;95978.72;1023167;29;20023;-68
2021/07/03 02:11:44;;;;;;;12.98;9.40;;;;;;;10.35;100.00;95972.38;1019248;29;20263;-66
2021/07/03 02:12:15;;;;;;;13.18;9.35;;;;;;;10.38;100.00;95977.91;1019344;29;20079;-68
2021/07/03 02:12:48;;;;;;;13.18;9.85;;;;;;;10.37;100.00;95971.09;1023302;29;20039;-68
2021/07/03 02:13:18;;;;;;;12.65;8.63;;;;;;;10.40;100.00;95977.66;1023439;29;20145;-68
2021/07/03 02:13:49;;;;;;;15.70;9.25;;;;;;;10.43;100.00;95982.41;1023359;29;20317;-68
2021/07/03 02:14:19;;;;;;;14.23;9.65;;;;;;;10.41;100.00;95974.00;1023120;29;20035;-68
2021/07/03 02:14:50;;;;;;;14.40;9.70;;;;;;;10.42;100.00;95980.03;1027346;28;20027;-68
2021/07/03 02:15:20;;;;;;;14.07;8.65;;;;;;;10.41;100.00;95976.63;1023258;29;20050;-68
2021/07/03 02:15:51;;;;;;;12.98;8.60;;;;;;;10.41;100.00;95976.63;1016760;29;20019;-68
2021/07/03 02:16:21;;;;;;;12.38;9.25;;;;;;;10.42;100.00;95977.41;1011700;29;20718;-69
2021/07/03 02:16:52;;;;;;;12.75;8.13;;;;;;;10.34;100.00;95965.56;1022341;29;20094;-68
2021/07/03 02:17:22;;;;;;;13.60;9.15;;;;;;;10.39;100.00;95973.44;1018209;29;20511;-67
2021/07/03 02:17:53;;;;;;;13.27;9.13;;;;;;;10.37;100.00;95980.81;1011570;29;20059;-68
2021/07/03 02:18:23;;;;;;;16.98;9.50;;;;;;;10.36;100.00;95979.19;1009709;29;20036;-68
2021/07/03 02:18:53;;;;;;;13.88;8.00;;;;;;;10.35;100.00;95983.66;1011755;29;20619;-68
2021/07/03 02:19:24;;;;;;;14.38;8.85;;;;;;;10.32;100.00;95972.88;1008024;29;20025;-68
2021/07/03 02:19:57;;;;;;;12.10;8.10;;;;;;;10.34;100.00;95984.72;1015661;29;20389;-68
2021/07/03 02:20:32;;;;;;;12.13;7.82;;;;;;;10.28;100.00;95979.69;1019505;29;20441;-68
2021/07/03 02:21:02;;;;;;;13.52;8.40;;;;;;;10.32;100.00;95981.53;1018973;29;20270;-68
2021/07/03 02:21:33;;;;;;;16.60;9.23;;;;;;;10.33;100.00;95979.72;1015472;29;20474;-68
2021/07/03 02:22:03;;;;;;;12.68;8.63;;;;;;;10.33;100.00;95984.97;1015572;29;20052;-68
2021/07/03 02:22:34;;;;;;;14.50;9.40;;;;;;;10.31;100.00;95982.59;1011646;29;20086;-68
2021/07/03 02:23:04;;;;;;;11.80;8.23;;;;;;;10.21;100.00;95966.78;1011665;29;20035;-68